createdAt,value
2022-08-19T00:01:59.218Z,20.85
2022-08-19T00:04:28.511Z,19.85
2022-08-19T00:06:55.094Z,18.08
2022-08-19T00:09:22.504Z,19.55
2022-08-19T00:11:49.102Z,19.00
2022-08-19T00:14:16.663Z,18.77
2022-08-19T00:16:45.484Z,19.05
2022-08-19T00:19:12.342Z,17.80
2022-08-19T00:21:40.626Z,18.00
2022-08-19T00:24:10.802Z,18.80
2022-08-19T00:26:37.856Z,17.80
2022-08-19T00:29:05.370Z,18.60
2022-08-19T00:31:32.442Z,18.10
2022-08-19T00:33:59.354Z,16.83
2022-08-19T00:36:26.350Z,17.73
2022-08-19T00:38:53.886Z,17.35
2022-08-19T00:41:22.102Z,23.02
2022-08-19T00:44:17.851Z,25.20
2022-08-19T00:46:45.312Z,35.75
2022-08-19T00:49:30.628Z,40.00
2022-08-19T00:52:05.911Z,42.00
2022-08-19T00:54:32.632Z,55.70
2022-08-19T00:57:00.362Z,57.75
2022-08-19T01:00:01.210Z,52.25
2022-08-19T01:02:16.194Z,42.80
2022-08-19T01:04:42.821Z,45.00
2022-08-19T01:07:09.368Z,41.70
2022-08-19T01:09:41.685Z,39.13
2022-08-19T01:12:08.562Z,35.28
2022-08-19T01:14:35.671Z,28.83
2022-08-19T01:17:02.633Z,24.40
2022-08-19T01:19:30.943Z,25.88
2022-08-19T01:22:14.177Z,18.60
2022-08-19T01:27:16.896Z,19.40
2022-08-19T01:29:44.417Z,20.02
2022-08-19T01:32:33.474Z,18.92
2022-08-19T01:34:59.409Z,18.77
2022-08-19T01:37:27.202Z,18.48
2022-08-19T01:39:54.448Z,19.35
2022-08-19T01:42:21.076Z,18.67
2022-08-19T01:44:57.051Z,18.65
2022-08-19T01:47:23.621Z,18.92
2022-08-19T01:49:50.203Z,17.35
2022-08-19T01:52:16.744Z,19.73
2022-08-19T01:54:43.231Z,19.77
2022-08-19T01:57:11.901Z,18.05
2022-08-19T01:59:38.514Z,18.45
2022-08-19T02:02:07.028Z,17.00
2022-08-19T02:04:33.713Z,17.17
2022-08-19T02:07:00.249Z,19.02
2022-08-19T02:09:26.723Z,15.95
2022-08-19T02:11:54.367Z,17.88
2022-08-19T02:14:20.904Z,17.60
2022-08-19T02:16:47.383Z,19.85
2022-08-19T02:19:13.974Z,17.38
2022-08-19T02:21:40.439Z,17.33
2022-08-19T02:24:06.997Z,15.45
2022-08-19T02:26:34.458Z,16.23
2022-08-19T02:29:01.320Z,16.75
2022-08-19T02:31:28.979Z,17.17
2022-08-19T02:33:57.015Z,15.38
2022-08-19T02:36:24.357Z,17.75
2022-08-19T02:38:54.784Z,16.02
2022-08-19T02:41:27.203Z,15.57
2022-08-19T02:44:28.766Z,18.55
2022-08-19T02:46:41.402Z,15.63
2022-08-19T02:49:08.333Z,18.33
2022-08-19T02:51:36.476Z,18.25
2022-08-19T02:54:03.446Z,16.48
2022-08-19T02:56:30.005Z,16.27
2022-08-19T02:58:56.542Z,15.82
2022-08-19T03:01:24.963Z,16.63
2022-08-19T03:03:51.906Z,16.48
2022-08-19T03:06:19.320Z,15.38
2022-08-19T03:08:47.343Z,16.33
2022-08-19T03:11:22.000Z,17.63
2022-08-19T03:13:50.031Z,16.50
2022-08-19T03:16:17.268Z,17.63
2022-08-19T03:18:44.053Z,17.25
2022-08-19T03:21:12.471Z,16.58
2022-08-19T03:23:39.968Z,16.52
2022-08-19T03:26:16.692Z,17.25
2022-08-19T03:28:49.473Z,16.95
2022-08-19T03:31:44.644Z,18.33
2022-08-19T03:34:08.190Z,17.42
2022-08-19T03:36:34.876Z,18.35
2022-08-19T03:39:01.795Z,17.08
2022-08-19T03:41:44.608Z,17.10
2022-08-19T03:44:18.085Z,16.52
2022-08-19T03:46:46.406Z,17.20
2022-08-19T03:49:14.140Z,18.98
2022-08-19T03:51:41.770Z,16.67
2022-08-19T03:54:09.763Z,17.70
2022-08-19T03:56:37.093Z,15.77
2022-08-19T03:59:04.241Z,16.08
2022-08-19T04:01:35.404Z,16.98
2022-08-19T04:04:03.324Z,14.80
2022-08-19T04:06:31.240Z,15.23
2022-08-19T04:08:59.273Z,15.35
2022-08-19T04:11:43.490Z,15.65
2022-08-19T04:14:11.774Z,15.25
2022-08-19T04:16:38.731Z,14.68
2022-08-19T04:19:06.156Z,13.77
2022-08-19T04:21:33.369Z,15.38
2022-08-19T04:24:00.030Z,14.43
2022-08-19T04:26:28.085Z,13.48
2022-08-19T04:28:55.274Z,14.13
2022-08-19T04:31:23.921Z,14.73
2022-08-19T04:33:50.498Z,14.45
2022-08-19T04:36:22.063Z,14.32
2022-08-19T04:38:49.459Z,13.32
2022-08-19T04:41:35.033Z,15.07
2022-08-19T04:44:04.389Z,11.73
2022-08-19T04:46:39.895Z,12.85
2022-08-19T04:49:18.680Z,12.65
2022-08-19T04:51:46.604Z,13.07
2022-08-19T04:54:13.465Z,13.77
2022-08-19T04:56:41.360Z,11.63
2022-08-19T04:59:09.542Z,11.50
2022-08-19T05:01:37.449Z,25.58
2022-08-19T05:04:06.232Z,12.45
2022-08-19T05:06:34.441Z,11.88
2022-08-19T05:09:04.051Z,12.60
2022-08-19T05:11:34.473Z,11.07
2022-08-19T05:14:01.093Z,9.60
2022-08-19T05:16:28.021Z,12.88
2022-08-19T05:19:13.433Z,9.60
2022-08-19T05:21:59.353Z,9.73
2022-08-19T05:24:26.457Z,11.00
2022-08-19T05:26:57.582Z,10.77
2022-08-19T05:29:25.179Z,8.57
2022-08-19T05:31:52.707Z,9.18
2022-08-19T05:34:22.751Z,10.30
2022-08-19T05:36:51.106Z,9.75
2022-08-19T05:39:21.466Z,9.02
2022-08-19T05:41:49.271Z,9.05
2022-08-19T05:44:17.735Z,8.63
2022-08-19T05:46:47.846Z,48.85
2022-08-19T05:49:15.328Z,19.17
2022-08-19T05:51:41.853Z,9.98
2022-08-19T05:54:09.489Z,14.38
2022-08-19T05:56:39.259Z,21.80
2022-08-19T05:59:09.833Z,11.98
2022-08-19T06:01:36.969Z,10.65
2022-08-19T06:04:04.193Z,10.13
2022-08-19T06:06:31.085Z,10.32
2022-08-19T06:08:57.741Z,11.50
2022-08-19T06:11:35.886Z,8.90
2022-08-19T06:14:09.030Z,9.23
2022-08-19T06:16:43.923Z,8.60
2022-08-19T06:19:13.684Z,9.40
2022-08-19T06:21:41.858Z,10.07
2022-08-19T06:24:09.418Z,8.55
2022-08-19T06:26:37.387Z,7.93
2022-08-19T06:29:05.658Z,9.82
2022-08-19T06:31:34.637Z,8.73
2022-08-19T06:34:04.081Z,9.65
2022-08-19T06:36:34.906Z,10.02
2022-08-19T06:39:06.748Z,8.95
2022-08-19T06:41:38.178Z,10.30
2022-08-19T06:44:09.042Z,8.07
2022-08-19T06:46:40.777Z,9.45
2022-08-19T06:49:14.781Z,12.93
2022-08-19T06:51:44.719Z,8.45
2022-08-19T06:54:19.305Z,8.95
2022-08-19T06:56:46.800Z,8.70
2022-08-19T06:59:23.396Z,8.27
2022-08-19T07:01:52.041Z,8.10
2022-08-19T07:04:20.519Z,9.65
2022-08-19T07:06:55.076Z,9.10
2022-08-19T07:09:22.336Z,8.25
2022-08-19T07:11:50.180Z,9.73
2022-08-19T07:14:19.707Z,10.10
2022-08-19T07:16:48.046Z,8.75
2022-08-19T07:19:15.793Z,9.68
2022-08-19T07:21:42.774Z,9.00
2022-08-19T07:24:09.343Z,7.90
2022-08-19T07:26:39.881Z,8.55
2022-08-19T07:29:09.034Z,6.80
2022-08-19T07:31:37.662Z,8.25
2022-08-19T07:34:09.927Z,9.45
2022-08-19T07:39:05.398Z,9.20
2022-08-19T07:41:32.344Z,9.88
2022-08-19T07:44:02.968Z,6.82
2022-08-19T07:46:32.133Z,8.07
2022-08-19T07:48:58.631Z,8.35
2022-08-19T07:51:28.695Z,8.35
2022-08-19T07:54:03.459Z,11.38
2022-08-19T07:56:30.007Z,12.45
2022-08-19T08:01:28.798Z,9.25
2022-08-19T08:04:14.873Z,8.52
2022-08-19T08:07:00.158Z,8.63
2022-08-19T08:09:28.982Z,8.20
2022-08-19T08:12:01.899Z,9.60
2022-08-19T08:14:35.155Z,20.08
2022-08-19T08:17:02.313Z,17.58
2022-08-19T08:19:29.250Z,9.57
2022-08-19T08:21:58.826Z,9.43
2022-08-19T08:24:28.528Z,7.72
2022-08-19T08:26:57.458Z,8.52
2022-08-19T08:29:26.127Z,7.93
2022-08-19T08:31:58.624Z,11.18
2022-08-19T08:34:26.749Z,10.60
2022-08-19T08:36:53.257Z,7.63
2022-08-19T08:39:20.799Z,9.23
2022-08-19T08:41:47.526Z,9.35
2022-08-19T08:44:40.520Z,9.05
2022-08-19T08:47:13.413Z,8.10
2022-08-19T08:49:39.907Z,8.23
2022-08-19T08:52:18.440Z,10.75
2022-08-19T08:54:54.684Z,12.70
2022-08-19T08:57:48.336Z,10.35
2022-08-19T09:00:22.231Z,8.90
2022-08-19T09:02:50.409Z,11.05
2022-08-19T09:05:17.713Z,8.48
2022-08-19T09:08:04.231Z,9.48
2022-08-19T09:10:34.895Z,16.23
2022-08-19T09:13:30.191Z,8.95
2022-08-19T09:16:12.675Z,10.38
2022-08-19T09:18:41.378Z,9.20
2022-08-19T09:21:09.699Z,7.75
2022-08-19T09:23:36.866Z,9.32
2022-08-19T09:26:07.885Z,8.82
2022-08-19T09:28:37.998Z,7.93
2022-08-19T09:31:05.670Z,10.48
2022-08-19T09:33:32.212Z,7.22
2022-08-19T09:36:08.374Z,7.57
2022-08-19T09:38:35.884Z,8.80
2022-08-19T09:41:13.472Z,8.35
2022-08-19T09:43:44.647Z,8.63
2022-08-19T09:46:18.090Z,7.80
2022-08-19T09:48:45.615Z,9.32
2022-08-19T09:51:16.034Z,6.95
2022-08-19T09:53:43.176Z,7.45
2022-08-19T09:56:09.906Z,7.55
2022-08-19T09:58:37.052Z,14.35
2022-08-19T10:01:04.306Z,7.20
2022-08-19T10:03:32.059Z,9.38
2022-08-19T10:05:59.753Z,7.47
2022-08-19T10:08:27.950Z,7.00
2022-08-19T10:10:55.925Z,12.98
2022-08-19T10:13:25.923Z,9.15
2022-08-19T10:15:57.341Z,10.18
2022-08-19T10:18:25.407Z,6.95
2022-08-19T10:20:54.540Z,6.78
2022-08-19T10:23:21.694Z,8.35
2022-08-19T10:25:48.780Z,6.07
2022-08-19T10:28:15.414Z,9.35
2022-08-19T10:30:42.842Z,7.50
2022-08-19T10:33:11.295Z,6.55
2022-08-19T10:35:42.550Z,7.18
2022-08-19T10:38:09.442Z,9.32
2022-08-19T10:40:36.881Z,9.25
2022-08-19T10:43:03.382Z,12.20
2022-08-19T10:45:29.889Z,8.68
2022-08-19T10:47:56.893Z,6.57
2022-08-19T10:50:42.058Z,7.03
2022-08-19T10:53:12.211Z,7.63
2022-08-19T10:55:57.156Z,8.15
2022-08-19T10:58:26.904Z,7.70
2022-08-19T11:00:54.984Z,6.90
2022-08-19T11:03:21.781Z,7.97
2022-08-19T11:05:57.692Z,8.35
2022-08-19T11:08:25.281Z,11.13
2022-08-19T11:10:54.709Z,9.13
2022-08-19T11:13:21.664Z,7.60
2022-08-19T11:15:48.416Z,7.40
2022-08-19T11:18:14.958Z,6.88
2022-08-19T11:20:41.440Z,6.47
2022-08-19T11:23:08.034Z,6.00
2022-08-19T11:25:35.494Z,7.95
2022-08-19T11:28:02.014Z,6.15
2022-08-19T11:30:28.889Z,6.95
2022-08-19T11:32:55.435Z,6.25
2022-08-19T11:35:24.206Z,6.90
2022-08-19T11:37:50.846Z,6.75
2022-08-19T11:40:17.497Z,8.25
2022-08-19T11:42:57.024Z,6.22
2022-08-19T11:45:24.419Z,8.63
2022-08-19T11:47:50.930Z,7.35
2022-08-19T11:50:18.302Z,5.97
2022-08-19T11:52:46.032Z,6.85
2022-08-19T11:55:15.590Z,7.25
2022-08-19T11:57:42.543Z,5.97
2022-08-19T12:00:10.696Z,6.35
2022-08-19T12:02:37.259Z,6.30
2022-08-19T12:05:04.966Z,9.77
2022-08-19T12:07:34.171Z,8.20
2022-08-19T12:10:01.310Z,5.47
2022-08-19T12:12:28.949Z,7.35
2022-08-19T12:14:59.092Z,8.77
2022-08-19T12:17:27.368Z,5.90
2022-08-19T12:19:54.362Z,6.03
2022-08-19T12:22:21.717Z,8.82
2022-08-19T12:24:49.070Z,5.97
2022-08-19T12:27:15.853Z,6.30
2022-08-19T12:30:02.071Z,6.68
2022-08-19T12:32:28.863Z,6.10
2022-08-19T12:34:55.386Z,7.05
2022-08-19T12:37:22.213Z,6.20
2022-08-19T12:39:48.703Z,8.40
2022-08-19T12:42:15.610Z,11.43
2022-08-19T12:44:43.102Z,6.43
2022-08-19T12:47:12.134Z,4.40
2022-08-19T12:49:54.203Z,6.65
2022-08-19T12:52:23.293Z,7.70
2022-08-19T12:54:53.964Z,6.88
2022-08-19T12:57:20.833Z,6.68
2022-08-19T12:59:47.382Z,6.30
2022-08-19T13:02:13.907Z,7.53
2022-08-19T13:04:41.750Z,8.18
2022-08-19T13:07:09.769Z,6.32
2022-08-19T13:09:36.303Z,7.25
2022-08-19T13:12:04.503Z,7.15
2022-08-19T13:14:32.910Z,5.30
2022-08-19T13:17:00.262Z,7.95
2022-08-19T13:19:27.509Z,5.30
2022-08-19T13:22:00.065Z,6.72
2022-08-19T13:26:58.046Z,7.30
2022-08-19T13:29:43.504Z,5.90
2022-08-19T13:32:28.711Z,5.05
2022-08-19T13:34:56.768Z,5.43
2022-08-19T13:37:42.020Z,7.63
2022-08-19T13:40:16.408Z,7.38
2022-08-19T13:42:43.717Z,5.28
2022-08-19T13:45:11.556Z,5.28
2022-08-19T13:47:43.505Z,6.05
2022-08-19T13:50:11.826Z,4.85
2022-08-19T13:52:39.258Z,7.50
2022-08-19T13:55:06.827Z,5.32
2022-08-19T13:57:33.825Z,4.93
2022-08-19T14:00:00.381Z,7.38
2022-08-19T14:02:27.388Z,6.03
2022-08-19T14:04:54.155Z,6.32
2022-08-19T14:07:21.181Z,6.88
2022-08-19T14:09:47.679Z,6.45
2022-08-19T14:12:19.028Z,5.05
2022-08-19T14:14:55.617Z,5.88
2022-08-19T14:17:22.512Z,5.43
2022-08-19T14:19:49.093Z,8.27
2022-08-19T14:22:15.652Z,7.43
2022-08-19T14:24:49.201Z,5.15
2022-08-19T14:27:15.772Z,5.53
2022-08-19T14:29:42.275Z,7.85
2022-08-19T14:32:08.811Z,5.57
2022-08-19T14:34:39.862Z,6.40
2022-08-19T14:37:07.045Z,6.00
2022-08-19T14:39:33.727Z,5.80
2022-08-19T14:42:00.254Z,5.90
2022-08-19T14:44:27.328Z,7.13
2022-08-19T14:46:54.610Z,8.98
2022-08-19T14:49:21.213Z,7.13
2022-08-19T14:51:58.499Z,6.15
2022-08-19T14:54:25.298Z,5.47
2022-08-19T14:56:54.118Z,11.27
2022-08-19T14:59:20.658Z,5.70
2022-08-19T15:01:47.570Z,4.47
2022-08-19T15:04:14.144Z,6.28
2022-08-19T15:06:40.698Z,6.45
2022-08-19T15:09:07.261Z,4.82
2022-08-19T15:11:33.792Z,7.25
2022-08-19T15:14:00.463Z,6.20
2022-08-19T15:16:27.560Z,5.97
2022-08-19T15:18:56.110Z,9.15
2022-08-19T15:21:27.608Z,4.93
2022-08-19T15:23:55.124Z,5.93
2022-08-19T15:26:21.710Z,7.03
2022-08-19T15:28:48.186Z,7.38
2022-08-19T15:31:25.289Z,6.07
2022-08-19T15:33:57.097Z,7.05
2022-08-19T15:36:24.203Z,6.47
2022-08-19T15:38:53.206Z,5.63
2022-08-19T15:41:24.145Z,14.90
2022-08-19T15:43:51.897Z,6.25
2022-08-19T15:46:19.491Z,7.00
2022-08-19T15:48:56.195Z,4.95
2022-08-19T15:51:27.081Z,5.85
2022-08-19T15:53:53.658Z,5.20
2022-08-19T15:56:21.874Z,6.10
2022-08-19T15:59:09.523Z,6.75
2022-08-19T16:01:54.834Z,5.80
2022-08-19T16:04:40.197Z,10.23
2022-08-19T16:07:08.493Z,6.10
2022-08-19T16:09:36.391Z,8.07
2022-08-19T16:12:04.916Z,6.10
2022-08-19T16:14:35.458Z,5.93
2022-08-19T16:17:02.572Z,8.20
2022-08-19T16:19:29.172Z,5.75
2022-08-19T16:21:56.915Z,5.60
2022-08-19T16:24:26.241Z,6.88
2022-08-19T16:26:52.760Z,6.40
2022-08-19T16:29:27.722Z,7.93
2022-08-19T16:32:02.766Z,9.10
2022-08-19T16:34:29.732Z,15.55
2022-08-19T16:36:56.219Z,7.38
2022-08-19T16:39:23.711Z,6.60
2022-08-19T16:41:51.003Z,7.63
2022-08-19T16:44:20.769Z,7.95
2022-08-19T16:46:57.378Z,7.00
2022-08-19T16:49:53.778Z,11.00
2022-08-19T16:52:12.948Z,15.88
2022-08-19T16:54:41.955Z,10.13
2022-08-19T16:57:11.796Z,7.05
2022-08-19T16:59:48.513Z,6.85
2022-08-19T17:02:19.894Z,10.60
2022-08-19T17:04:55.965Z,7.25
2022-08-19T17:07:25.168Z,10.05
2022-08-19T17:09:52.390Z,7.15
2022-08-19T17:12:18.928Z,6.57
2022-08-19T17:14:46.096Z,12.60
2022-08-19T17:17:12.867Z,6.32
2022-08-19T17:19:41.795Z,7.20
2022-08-19T17:22:09.904Z,8.50
2022-08-19T17:24:38.162Z,19.55
2022-08-19T17:27:07.538Z,14.07
2022-08-19T17:29:34.390Z,9.20
2022-08-19T17:32:01.714Z,10.52
2022-08-19T17:34:28.226Z,6.78
2022-08-19T17:36:57.139Z,7.50
2022-08-19T17:39:23.966Z,7.50
2022-08-19T17:41:50.557Z,7.45
2022-08-19T17:44:19.014Z,7.68
2022-08-19T17:46:46.749Z,7.80
2022-08-19T17:49:13.408Z,8.52
2022-08-19T17:51:42.382Z,9.35
2022-08-19T17:54:10.806Z,7.45
2022-08-19T17:56:38.142Z,8.38
2022-08-19T17:59:05.871Z,10.55
2022-08-19T18:01:52.320Z,9.80
2022-08-19T18:04:20.698Z,7.80
2022-08-19T18:06:53.838Z,8.52
2022-08-19T18:09:24.981Z,9.90
2022-08-19T18:11:52.984Z,24.65
2022-08-19T18:14:20.412Z,6.90
2022-08-19T18:16:47.062Z,8.43
2022-08-19T18:19:13.668Z,10.82
2022-08-19T18:21:40.839Z,7.22
2022-08-19T18:24:07.764Z,10.80
2022-08-19T18:26:34.907Z,8.07
2022-08-19T18:29:01.931Z,6.28
2022-08-19T18:31:29.151Z,9.43
2022-08-19T18:33:56.054Z,5.68
2022-08-19T18:36:50.234Z,8.98
2022-08-19T18:39:29.368Z,12.40
2022-08-19T18:42:14.816Z,9.57
2022-08-19T18:45:00.289Z,6.53
2022-08-19T18:47:45.216Z,9.15
2022-08-19T18:50:13.034Z,7.15
2022-08-19T18:52:40.640Z,9.95
2022-08-19T18:55:07.536Z,5.88
2022-08-19T18:57:34.135Z,7.07
2022-08-19T19:00:00.869Z,13.52
2022-08-19T19:02:27.714Z,6.75
2022-08-19T19:04:56.033Z,6.53
2022-08-19T19:07:23.373Z,8.75
2022-08-19T19:09:52.645Z,6.55
2022-08-19T19:12:19.182Z,6.68
2022-08-19T19:14:49.554Z,6.80
2022-08-19T19:17:17.031Z,6.90
2022-08-19T19:19:44.054Z,9.38
2022-08-19T19:22:17.426Z,6.90
2022-08-19T19:24:44.257Z,7.03
2022-08-19T19:27:12.898Z,8.43
2022-08-19T19:29:40.099Z,8.10
2022-08-19T19:32:08.405Z,7.88
2022-08-19T19:34:36.949Z,8.27
2022-08-19T19:37:03.449Z,5.95
2022-08-19T19:39:44.862Z,6.05
2022-08-19T19:42:20.564Z,5.97
2022-08-19T19:44:49.279Z,10.57
2022-08-19T19:47:18.458Z,9.00
2022-08-19T19:50:13.725Z,8.75
2022-08-19T19:52:38.094Z,6.97
2022-08-19T19:55:04.779Z,5.50
2022-08-19T19:57:31.314Z,7.05
2022-08-19T19:59:58.234Z,8.40
2022-08-19T20:02:25.245Z,6.53
2022-08-19T20:04:52.306Z,6.05
2022-08-19T20:07:38.807Z,6.97
2022-08-19T20:10:05.477Z,6.00
2022-08-19T20:12:32.037Z,7.65
2022-08-19T20:14:58.515Z,6.30
2022-08-19T20:17:25.013Z,5.05
2022-08-19T20:19:51.534Z,5.97
2022-08-19T20:22:19.062Z,6.75
2022-08-19T20:24:45.792Z,6.05
2022-08-19T20:27:12.644Z,7.35
2022-08-19T20:29:41.547Z,4.93
2022-08-19T20:32:11.006Z,6.05
2022-08-19T20:34:37.850Z,8.48
2022-08-19T20:37:04.793Z,7.00
2022-08-19T20:39:31.581Z,6.03
2022-08-19T20:41:58.278Z,7.40
2022-08-19T20:44:25.548Z,6.68
2022-08-19T20:46:55.621Z,6.32
2022-08-19T20:49:26.990Z,7.82
2022-08-19T20:51:56.139Z,5.40
2022-08-19T20:54:22.686Z,6.20
2022-08-19T20:56:49.182Z,5.65
2022-08-19T20:59:15.654Z,5.53
2022-08-19T21:01:43.151Z,4.88
2022-08-19T21:04:09.621Z,5.47
2022-08-19T21:06:37.043Z,5.47
2022-08-19T21:09:03.696Z,6.75
2022-08-19T21:11:31.184Z,5.47
2022-08-19T21:13:58.362Z,5.65
2022-08-19T21:16:25.374Z,6.57
2022-08-19T21:18:51.890Z,7.28
2022-08-19T21:21:18.482Z,5.93
2022-08-19T21:23:45.461Z,5.80
2022-08-19T21:26:12.078Z,6.03
2022-08-19T21:28:38.639Z,5.50
2022-08-19T21:31:06.302Z,6.18
2022-08-19T21:33:32.898Z,6.47
2022-08-19T21:36:00.146Z,5.18
2022-08-19T21:38:27.225Z,5.82
2022-08-19T21:40:54.026Z,8.27
2022-08-19T21:43:20.960Z,6.10
2022-08-19T21:45:47.942Z,5.40
2022-08-19T21:48:14.779Z,6.60
2022-08-19T21:50:41.972Z,4.78
2022-08-19T21:53:08.456Z,6.35
2022-08-19T21:55:38.888Z,6.43
2022-08-19T21:58:05.407Z,5.75
2022-08-19T22:00:33.985Z,5.90
2022-08-19T22:03:01.369Z,7.35
2022-08-19T22:05:28.212Z,5.93
2022-08-19T22:07:57.762Z,6.15
2022-08-19T22:10:26.649Z,5.75
2022-08-19T22:12:53.899Z,5.80
2022-08-19T22:15:23.870Z,6.18
2022-08-19T22:17:50.843Z,5.55
2022-08-19T22:20:19.939Z,5.10
2022-08-19T22:22:48.675Z,6.60
2022-08-19T22:25:31.249Z,5.75
2022-08-19T22:27:58.639Z,6.28
2022-08-19T22:30:27.552Z,5.82
2022-08-19T22:33:01.152Z,6.30
2022-08-19T22:35:31.254Z,6.78
2022-08-19T22:38:01.361Z,6.10
2022-08-19T22:40:29.641Z,6.53
2022-08-19T22:43:05.590Z,7.13
2022-08-19T22:45:33.440Z,5.63
2022-08-19T22:48:00.486Z,6.10
2022-08-19T22:50:27.043Z,6.72
2022-08-19T22:52:57.932Z,5.70
2022-08-19T22:55:27.327Z,7.93
2022-08-19T22:57:54.626Z,5.57
2022-08-19T23:00:22.357Z,4.65
2022-08-19T23:02:51.917Z,7.82
2022-08-19T23:05:22.172Z,5.20
2022-08-19T23:07:52.076Z,6.65
2022-08-19T23:10:27.115Z,6.70
2022-08-19T23:12:55.204Z,5.35
2022-08-19T23:15:24.198Z,7.25
2022-08-19T23:17:50.833Z,6.38
2022-08-19T23:20:17.604Z,5.68
2022-08-19T23:22:45.477Z,6.72
2022-08-19T23:25:14.271Z,6.50
2022-08-19T23:27:59.389Z,6.75
2022-08-19T23:30:26.485Z,6.38
2022-08-19T23:32:54.476Z,5.50
2022-08-19T23:35:21.045Z,7.53
2022-08-19T23:37:48.132Z,7.63
2022-08-19T23:40:17.286Z,6.97
2022-08-19T23:42:46.531Z,6.97
2022-08-19T23:45:13.492Z,5.30
2022-08-19T23:47:41.324Z,6.25
2022-08-19T23:50:08.612Z,7.72
2022-08-19T23:52:42.414Z,6.40
2022-08-19T23:55:09.271Z,5.15
2022-08-19T23:57:35.754Z,7.10
